sensor_id;sensor_type;location;lat;lon;timestamp;P1;durP1;ratioP1;P2;durP2;ratioP2
76380;SDS011;65202;52.520;10.528;2023-03-05T00:01:25;17.40;;;5.40;;
76380;SDS011;65202;52.520;10.528;2023-03-05T00:03:56;39.95;;;12.00;;
76380;SDS011;65202;52.520;10.528;2023-03-05T00:06:24;31.83;;;8.90;;
76380;SDS011;65202;52.520;10.528;2023-03-05T00:08:54;24.90;;;6.68;;
76380;SDS011;65202;52.520;10.528;2023-03-05T00:11:24;22.58;;;6.57;;
76380;SDS011;65202;52.520;10.528;2023-03-05T00:13:55;24.50;;;6.75;;
76380;SDS011;65202;52.520;10.528;2023-03-05T00:16:24;21.75;;;6.90;;
76380;SDS011;65202;52.520;10.528;2023-03-05T00:18:53;21.00;;;6.97;;
76380;SDS011;65202;52.520;10.528;2023-03-05T00:21:31;20.00;;;7.28;;
76380;SDS011;65202;52.520;10.528;2023-03-05T00:24:03;20.70;;;6.97;;
76380;SDS011;65202;52.520;10.528;2023-03-05T00:26:40;23.02;;;7.82;;
76380;SDS011;65202;52.520;10.528;2023-03-05T00:29:08;25.48;;;7.45;;
76380;SDS011;65202;52.520;10.528;2023-03-05T00:31:40;22.88;;;7.40;;
76380;SDS011;65202;52.520;10.528;2023-03-05T00:34:11;17.83;;;7.28;;
76380;SDS011;65202;52.520;10.528;2023-03-05T00:36:42;21.35;;;7.13;;
76380;SDS011;65202;52.520;10.528;2023-03-05T00:39:17;23.95;;;8.07;;
76380;SDS011;65202;52.520;10.528;2023-03-05T00:41:46;24.25;;;7.00;;
76380;SDS011;65202;52.520;10.528;2023-03-05T00:44:15;23.23;;;6.68;;
76380;SDS011;65202;52.520;10.528;2023-03-05T00:46:42;18.65;;;7.38;;
76380;SDS011;65202;52.520;10.528;2023-03-05T00:49:09;20.58;;;7.15;;
76380;SDS011;65202;52.520;10.528;2023-03-05T00:51:36;25.02;;;6.68;;
76380;SDS011;65202;52.520;10.528;2023-03-05T00:54:04;20.52;;;7.03;;
76380;SDS011;65202;52.520;10.528;2023-03-05T00:56:31;18.23;;;6.95;;
76380;SDS011;65202;52.520;10.528;2023-03-05T00:58:59;19.58;;;6.50;;
76380;SDS011;65202;52.520;10.528;2023-03-05T01:01:26;17.65;;;6.55;;
76380;SDS011;65202;52.520;10.528;2023-03-05T01:03:55;17.02;;;6.68;;
76380;SDS011;65202;52.520;10.528;2023-03-05T01:06:23;20.20;;;7.30;;
76380;SDS011;65202;52.520;10.528;2023-03-05T01:08:50;21.45;;;6.63;;
76380;SDS011;65202;52.520;10.528;2023-03-05T01:11:17;22.50;;;6.68;;
76380;SDS011;65202;52.520;10.528;2023-03-05T01:13:45;19.15;;;6.00;;
76380;SDS011;65202;52.520;10.528;2023-03-05T01:16:12;16.98;;;6.07;;
76380;SDS011;65202;52.520;10.528;2023-03-05T01:18:40;18.52;;;6.38;;
76380;SDS011;65202;52.520;10.528;2023-03-05T01:21:07;18.67;;;6.10;;
76380;SDS011;65202;52.520;10.528;2023-03-05T01:23:35;15.38;;;6.00;;
76380;SDS011;65202;52.520;10.528;2023-03-05T01:26:03;20.55;;;7.68;;
76380;SDS011;65202;52.520;10.528;2023-03-05T01:28:31;16.55;;;6.25;;
76380;SDS011;65202;52.520;10.528;2023-03-05T01:30:58;18.05;;;6.47;;
76380;SDS011;65202;52.520;10.528;2023-03-05T01:33:26;22.25;;;7.28;;
76380;SDS011;65202;52.520;10.528;2023-03-05T01:35:53;16.80;;;5.65;;
76380;SDS011;65202;52.520;10.528;2023-03-05T01:38:20;16.52;;;6.00;;
76380;SDS011;65202;52.520;10.528;2023-03-05T01:40:47;22.02;;;5.82;;
76380;SDS011;65202;52.520;10.528;2023-03-05T01:43:19;18.77;;;5.55;;
76380;SDS011;65202;52.520;10.528;2023-03-05T01:49:05;17.38;;;5.10;;
76380;SDS011;65202;52.520;10.528;2023-03-05T01:54:38;18.98;;;6.32;;
76380;SDS011;65202;52.520;10.528;2023-03-05T01:57:13;27.17;;;9.30;;
76380;SDS011;65202;52.520;10.528;2023-03-05T01:59:44;22.13;;;8.00;;
76380;SDS011;65202;52.520;10.528;2023-03-05T02:02:17;23.35;;;6.40;;
76380;SDS011;65202;52.520;10.528;2023-03-05T02:04:47;19.73;;;6.10;;
76380;SDS011;65202;52.520;10.528;2023-03-05T02:07:20;18.42;;;6.10;;
76380;SDS011;65202;52.520;10.528;2023-03-05T02:09:49;20.42;;;5.57;;
76380;SDS011;65202;52.520;10.528;2023-03-05T02:12:16;19.90;;;4.93;;
76380;SDS011;65202;52.520;10.528;2023-03-05T02:14:45;16.58;;;4.78;;
76380;SDS011;65202;52.520;10.528;2023-03-05T02:17:16;24.48;;;5.03;;
76380;SDS011;65202;52.520;10.528;2023-03-05T02:19:51;20.40;;;4.78;;
76380;SDS011;65202;52.520;10.528;2023-03-05T02:22:22;13.18;;;4.55;;
76380;SDS011;65202;52.520;10.528;2023-03-05T02:24:50;16.65;;;4.88;;
76380;SDS011;65202;52.520;10.528;2023-03-05T02:27:20;10.85;;;4.28;;
76380;SDS011;65202;52.520;10.528;2023-03-05T02:30:00;20.08;;;5.00;;
76380;SDS011;65202;52.520;10.528;2023-03-05T02:32:28;18.15;;;4.40;;
76380;SDS011;65202;52.520;10.528;2023-03-05T02:34:55;15.80;;;4.05;;
76380;SDS011;65202;52.520;10.528;2023-03-05T02:37:22;11.93;;;3.97;;
76380;SDS011;65202;52.520;10.528;2023-03-05T02:39:50;17.92;;;4.22;;
76380;SDS011;65202;52.520;10.528;2023-03-05T02:42:17;15.25;;;3.88;;
76380;SDS011;65202;52.520;10.528;2023-03-05T02:44:44;19.77;;;3.92;;
76380;SDS011;65202;52.520;10.528;2023-03-05T02:47:11;17.63;;;3.95;;
76380;SDS011;65202;52.520;10.528;2023-03-05T02:49:38;16.98;;;4.00;;
76380;SDS011;65202;52.520;10.528;2023-03-05T02:52:06;14.48;;;3.63;;
76380;SDS011;65202;52.520;10.528;2023-03-05T02:54:33;19.20;;;3.80;;
76380;SDS011;65202;52.520;10.528;2023-03-05T02:57:00;18.42;;;3.85;;
76380;SDS011;65202;52.520;10.528;2023-03-05T02:59:27;17.48;;;3.78;;
76380;SDS011;65202;52.520;10.528;2023-03-05T03:01:54;15.18;;;3.30;;
76380;SDS011;65202;52.520;10.528;2023-03-05T03:04:22;15.98;;;3.92;;
76380;SDS011;65202;52.520;10.528;2023-03-05T03:06:49;19.45;;;4.00;;
76380;SDS011;65202;52.520;10.528;2023-03-05T03:09:16;17.83;;;4.10;;
76380;SDS011;65202;52.520;10.528;2023-03-05T03:11:43;16.40;;;4.13;;
76380;SDS011;65202;52.520;10.528;2023-03-05T03:14:10;16.15;;;3.75;;
76380;SDS011;65202;52.520;10.528;2023-03-05T03:16:38;15.70;;;4.10;;
76380;SDS011;65202;52.520;10.528;2023-03-05T03:19:05;14.73;;;3.60;;
76380;SDS011;65202;52.520;10.528;2023-03-05T03:21:32;14.30;;;3.75;;
76380;SDS011;65202;52.520;10.528;2023-03-05T03:23:59;13.57;;;3.70;;
76380;SDS011;65202;52.520;10.528;2023-03-05T03:26:27;9.68;;;3.80;;
76380;SDS011;65202;52.520;10.528;2023-03-05T03:28:54;13.90;;;4.03;;
76380;SDS011;65202;52.520;10.528;2023-03-05T03:31:22;17.10;;;4.15;;
76380;SDS011;65202;52.520;10.528;2023-03-05T03:33:50;18.00;;;4.28;;
76380;SDS011;65202;52.520;10.528;2023-03-05T03:36:17;16.13;;;4.25;;
76380;SDS011;65202;52.520;10.528;2023-03-05T03:38:45;18.73;;;4.40;;
76380;SDS011;65202;52.520;10.528;2023-03-05T03:41:12;20.40;;;4.15;;
76380;SDS011;65202;52.520;10.528;2023-03-05T03:43:40;14.50;;;3.97;;
76380;SDS011;65202;52.520;10.528;2023-03-05T03:46:07;19.38;;;4.35;;
76380;SDS011;65202;52.520;10.528;2023-03-05T03:48:35;18.98;;;4.47;;
76380;SDS011;65202;52.520;10.528;2023-03-05T03:51:03;17.33;;;5.20;;
76380;SDS011;65202;52.520;10.528;2023-03-05T03:53:32;13.02;;;3.92;;
76380;SDS011;65202;52.520;10.528;2023-03-05T03:56:00;11.07;;;3.75;;
76380;SDS011;65202;52.520;10.528;2023-03-05T03:58:27;17.00;;;4.40;;
76380;SDS011;65202;52.520;10.528;2023-03-05T04:00:55;16.80;;;4.88;;
76380;SDS011;65202;52.520;10.528;2023-03-05T04:03:22;16.90;;;4.85;;
76380;SDS011;65202;52.520;10.528;2023-03-05T04:05:49;17.27;;;4.70;;
76380;SDS011;65202;52.520;10.528;2023-03-05T04:08:17;17.90;;;4.63;;
76380;SDS011;65202;52.520;10.528;2023-03-05T04:10:44;17.42;;;4.68;;
76380;SDS011;65202;52.520;10.528;2023-03-05T04:13:11;15.23;;;5.03;;
76380;SDS011;65202;52.520;10.528;2023-03-05T04:15:39;17.88;;;4.60;;
76380;SDS011;65202;52.520;10.528;2023-03-05T04:18:06;14.25;;;4.85;;
76380;SDS011;65202;52.520;10.528;2023-03-05T04:20:33;21.90;;;5.18;;
76380;SDS011;65202;52.520;10.528;2023-03-05T04:23:01;16.20;;;5.18;;
76380;SDS011;65202;52.520;10.528;2023-03-05T04:25:28;14.48;;;4.80;;
76380;SDS011;65202;52.520;10.528;2023-03-05T04:27:56;16.55;;;5.00;;
76380;SDS011;65202;52.520;10.528;2023-03-05T04:30:23;19.73;;;5.10;;
76380;SDS011;65202;52.520;10.528;2023-03-05T04:32:50;13.23;;;4.85;;
76380;SDS011;65202;52.520;10.528;2023-03-05T04:35:17;14.02;;;5.80;;
76380;SDS011;65202;52.520;10.528;2023-03-05T04:37:44;15.20;;;5.35;;
76380;SDS011;65202;52.520;10.528;2023-03-05T04:40:13;19.48;;;5.53;;
76380;SDS011;65202;52.520;10.528;2023-03-05T04:42:40;12.85;;;4.75;;
76380;SDS011;65202;52.520;10.528;2023-03-05T04:45:08;15.52;;;4.93;;
76380;SDS011;65202;52.520;10.528;2023-03-05T04:47:36;14.15;;;4.78;;
76380;SDS011;65202;52.520;10.528;2023-03-05T04:50:04;15.07;;;5.50;;
76380;SDS011;65202;52.520;10.528;2023-03-05T04:52:33;15.98;;;5.68;;
76380;SDS011;65202;52.520;10.528;2023-03-05T04:55:00;16.67;;;5.28;;
76380;SDS011;65202;52.520;10.528;2023-03-05T04:57:27;16.30;;;4.57;;
76380;SDS011;65202;52.520;10.528;2023-03-05T04:59:54;14.43;;;5.13;;
76380;SDS011;65202;52.520;10.528;2023-03-05T05:02:21;19.48;;;5.20;;
76380;SDS011;65202;52.520;10.528;2023-03-05T05:04:51;15.32;;;5.63;;
76380;SDS011;65202;52.520;10.528;2023-03-05T05:07:19;14.13;;;5.10;;
76380;SDS011;65202;52.520;10.528;2023-03-05T05:09:47;13.43;;;5.47;;
76380;SDS011;65202;52.520;10.528;2023-03-05T05:12:14;13.05;;;5.32;;
76380;SDS011;65202;52.520;10.528;2023-03-05T05:14:42;17.20;;;5.70;;
76380;SDS011;65202;52.520;10.528;2023-03-05T05:17:09;12.70;;;5.18;;
76380;SDS011;65202;52.520;10.528;2023-03-05T05:19:37;16.52;;;6.32;;
76380;SDS011;65202;52.520;10.528;2023-03-05T05:22:04;15.82;;;5.75;;
76380;SDS011;65202;52.520;10.528;2023-03-05T05:24:31;17.30;;;6.07;;
76380;SDS011;65202;52.520;10.528;2023-03-05T05:26:58;13.18;;;5.60;;
76380;SDS011;65202;52.520;10.528;2023-03-05T05:29:25;20.33;;;5.72;;
76380;SDS011;65202;52.520;10.528;2023-03-05T05:31:53;15.00;;;5.40;;
76380;SDS011;65202;52.520;10.528;2023-03-05T05:34:20;15.10;;;5.75;;
76380;SDS011;65202;52.520;10.528;2023-03-05T05:36:47;15.20;;;6.13;;
76380;SDS011;65202;52.520;10.528;2023-03-05T05:39:14;12.57;;;5.63;;
76380;SDS011;65202;52.520;10.528;2023-03-05T05:41:42;12.68;;;5.47;;
76380;SDS011;65202;52.520;10.528;2023-03-05T05:44:09;16.13;;;5.80;;
76380;SDS011;65202;52.520;10.528;2023-03-05T05:46:36;11.95;;;5.88;;
76380;SDS011;65202;52.520;10.528;2023-03-05T05:49:04;18.08;;;7.00;;
76380;SDS011;65202;52.520;10.528;2023-03-05T05:51:31;14.88;;;6.18;;
76380;SDS011;65202;52.520;10.528;2023-03-05T05:53:58;17.40;;;7.15;;
76380;SDS011;65202;52.520;10.528;2023-03-05T05:56:26;15.15;;;6.50;;
76380;SDS011;65202;52.520;10.528;2023-03-05T05:58:53;11.88;;;5.47;;
76380;SDS011;65202;52.520;10.528;2023-03-05T06:01:28;13.75;;;6.57;;
76380;SDS011;65202;52.520;10.528;2023-03-05T06:03:57;15.75;;;6.10;;
76380;SDS011;65202;52.520;10.528;2023-03-05T06:06:24;15.90;;;6.40;;
76380;SDS011;65202;52.520;10.528;2023-03-05T06:08:53;12.40;;;6.70;;
76380;SDS011;65202;52.520;10.528;2023-03-05T06:11:21;15.30;;;6.90;;
76380;SDS011;65202;52.520;10.528;2023-03-05T06:13:49;14.82;;;6.60;;
76380;SDS011;65202;52.520;10.528;2023-03-05T06:16:17;10.20;;;6.15;;
76380;SDS011;65202;52.520;10.528;2023-03-05T06:18:48;13.85;;;6.53;;
76380;SDS011;65202;52.520;10.528;2023-03-05T06:21:17;17.13;;;7.13;;
76380;SDS011;65202;52.520;10.528;2023-03-05T06:23:46;14.02;;;6.95;;
76380;SDS011;65202;52.520;10.528;2023-03-05T06:26:16;17.42;;;7.32;;
76380;SDS011;65202;52.520;10.528;2023-03-05T06:28:47;14.53;;;6.17;;
76380;SDS011;65202;52.520;10.528;2023-03-05T06:31:17;14.50;;;7.20;;
76380;SDS011;65202;52.520;10.528;2023-03-05T06:36:16;16.98;;;6.97;;
76380;SDS011;65202;52.520;10.528;2023-03-05T06:38:46;15.52;;;6.93;;
76380;SDS011;65202;52.520;10.528;2023-03-05T06:41:16;14.13;;;6.80;;
76380;SDS011;65202;52.520;10.528;2023-03-05T06:43:47;13.95;;;6.53;;
76380;SDS011;65202;52.520;10.528;2023-03-05T06:46:19;16.75;;;6.78;;
76380;SDS011;65202;52.520;10.528;2023-03-05T06:48:56;14.23;;;6.68;;
76380;SDS011;65202;52.520;10.528;2023-03-05T06:51:31;13.90;;;6.90;;
76380;SDS011;65202;52.520;10.528;2023-03-05T06:54:02;12.73;;;7.03;;
76380;SDS011;65202;52.520;10.528;2023-03-05T06:56:35;12.30;;;6.82;;
76380;SDS011;65202;52.520;10.528;2023-03-05T06:59:06;18.52;;;7.03;;
76380;SDS011;65202;52.520;10.528;2023-03-05T07:01:34;14.00;;;7.75;;
76380;SDS011;65202;52.520;10.528;2023-03-05T07:04:02;15.20;;;7.20;;
76380;SDS011;65202;52.520;10.528;2023-03-05T07:06:33;18.83;;;8.13;;
76380;SDS011;65202;52.520;10.528;2023-03-05T07:09:05;20.85;;;7.10;;
76380;SDS011;65202;52.520;10.528;2023-03-05T07:11:34;16.20;;;6.80;;
76380;SDS011;65202;52.520;10.528;2023-03-05T07:14:01;10.57;;;5.78;;
76380;SDS011;65202;52.520;10.528;2023-03-05T07:16:30;12.20;;;6.15;;
76380;SDS011;65202;52.520;10.528;2023-03-05T07:19:00;13.63;;;6.78;;
76380;SDS011;65202;52.520;10.528;2023-03-05T07:21:31;15.50;;;6.20;;
76380;SDS011;65202;52.520;10.528;2023-03-05T07:24:03;14.83;;;6.57;;
76380;SDS011;65202;52.520;10.528;2023-03-05T07:26:32;18.17;;;5.90;;
76380;SDS011;65202;52.520;10.528;2023-03-05T07:28:59;11.48;;;5.97;;
76380;SDS011;65202;52.520;10.528;2023-03-05T07:31:27;16.75;;;5.90;;
76380;SDS011;65202;52.520;10.528;2023-03-05T07:33:58;14.55;;;6.68;;
76380;SDS011;65202;52.520;10.528;2023-03-05T07:36:28;14.60;;;6.28;;
76380;SDS011;65202;52.520;10.528;2023-03-05T07:38:56;13.77;;;6.20;;
76380;SDS011;65202;52.520;10.528;2023-03-05T07:41:23;12.63;;;6.07;;
76380;SDS011;65202;52.520;10.528;2023-03-05T07:43:51;16.30;;;6.38;;
76380;SDS011;65202;52.520;10.528;2023-03-05T07:46:21;13.07;;;6.40;;
76380;SDS011;65202;52.520;10.528;2023-03-05T07:48:53;17.30;;;6.53;;
76380;SDS011;65202;52.520;10.528;2023-03-05T07:51:22;15.68;;;6.63;;
76380;SDS011;65202;52.520;10.528;2023-03-05T07:53:52;16.75;;;6.45;;
76380;SDS011;65202;52.520;10.528;2023-03-05T07:56:22;11.40;;;5.88;;
76380;SDS011;65202;52.520;10.528;2023-03-05T07:58:52;16.08;;;6.00;;
76380;SDS011;65202;52.520;10.528;2023-03-05T08:01:20;17.58;;;6.13;;
76380;SDS011;65202;52.520;10.528;2023-03-05T08:03:47;14.40;;;5.85;;
76380;SDS011;65202;52.520;10.528;2023-03-05T08:06:14;14.48;;;5.75;;
76380;SDS011;65202;52.520;10.528;2023-03-05T08:08:42;16.88;;;6.10;;
76380;SDS011;65202;52.520;10.528;2023-03-05T08:11:10;13.35;;;5.97;;
76380;SDS011;65202;52.520;10.528;2023-03-05T08:13:40;16.83;;;6.28;;
76380;SDS011;65202;52.520;10.528;2023-03-05T08:16:13;10.32;;;6.40;;
76380;SDS011;65202;52.520;10.528;2023-03-05T08:18:44;13.55;;;6.35;;
76380;SDS011;65202;52.520;10.528;2023-03-05T08:21:19;14.77;;;6.53;;
76380;SDS011;65202;52.520;10.528;2023-03-05T08:23:55;13.53;;;6.60;;
76380;SDS011;65202;52.520;10.528;2023-03-05T08:26:24;13.90;;;6.28;;
76380;SDS011;65202;52.520;10.528;2023-03-05T08:28:55;13.50;;;6.57;;
76380;SDS011;65202;52.520;10.528;2023-03-05T08:31:24;17.17;;;6.28;;
76380;SDS011;65202;52.520;10.528;2023-03-05T08:33:53;14.57;;;5.75;;
76380;SDS011;65202;52.520;10.528;2023-03-05T08:36:22;10.00;;;5.25;;
76380;SDS011;65202;52.520;10.528;2023-03-05T08:38:49;14.48;;;5.82;;
76380;SDS011;65202;52.520;10.528;2023-03-05T08:41:17;11.90;;;5.15;;
76380;SDS011;65202;52.520;10.528;2023-03-05T08:43:45;10.65;;;5.32;;
76380;SDS011;65202;52.520;10.528;2023-03-05T08:46:14;10.25;;;5.00;;
76380;SDS011;65202;52.520;10.528;2023-03-05T08:48:42;12.45;;;5.30;;
76380;SDS011;65202;52.520;10.528;2023-03-05T08:51:11;12.55;;;5.43;;
76380;SDS011;65202;52.520;10.528;2023-03-05T08:53:42;11.48;;;5.90;;
76380;SDS011;65202;52.520;10.528;2023-03-05T08:56:11;15.30;;;5.63;;
76380;SDS011;65202;52.520;10.528;2023-03-05T08:58:39;15.43;;;4.93;;
76380;SDS011;65202;52.520;10.528;2023-03-05T09:01:06;10.82;;;5.35;;
76380;SDS011;65202;52.520;10.528;2023-03-05T09:03:33;11.93;;;5.07;;
76380;SDS011;65202;52.520;10.528;2023-03-05T09:06:02;12.68;;;5.68;;
76380;SDS011;65202;52.520;10.528;2023-03-05T09:08:33;9.43;;;4.27;;
76380;SDS011;65202;52.520;10.528;2023-03-05T09:11:02;10.48;;;5.03;;
76380;SDS011;65202;52.520;10.528;2023-03-05T09:13:32;5.95;;;2.72;;
76380;SDS011;65202;52.520;10.528;2023-03-05T09:16:01;11.43;;;3.10;;
76380;SDS011;65202;52.520;10.528;2023-03-05T09:18:32;6.57;;;2.30;;
76380;SDS011;65202;52.520;10.528;2023-03-05T09:21:03;6.97;;;2.55;;
76380;SDS011;65202;52.520;10.528;2023-03-05T09:23:33;5.78;;;2.67;;
76380;SDS011;65202;52.520;10.528;2023-03-05T09:26:00;4.88;;;1.90;;
76380;SDS011;65202;52.520;10.528;2023-03-05T09:28:30;5.22;;;1.73;;
76380;SDS011;65202;52.520;10.528;2023-03-05T09:31:00;5.28;;;2.17;;
76380;SDS011;65202;52.520;10.528;2023-03-05T09:33:30;4.57;;;1.88;;
76380;SDS011;65202;52.520;10.528;2023-03-05T09:35:59;5.43;;;1.92;;
76380;SDS011;65202;52.520;10.528;2023-03-05T09:38:27;5.68;;;2.38;;
76380;SDS011;65202;52.520;10.528;2023-03-05T09:41:04;6.93;;;2.40;;
76380;SDS011;65202;52.520;10.528;2023-03-05T09:52:33;5.57;;;2.47;;
76380;SDS011;65202;52.520;10.528;2023-03-05T09:55:09;7.90;;;3.13;;
76380;SDS011;65202;52.520;10.528;2023-03-05T09:57:48;4.82;;;3.00;;
76380;SDS011;65202;52.520;10.528;2023-03-05T10:00:36;7.18;;;2.97;;
76380;SDS011;65202;52.520;10.528;2023-03-05T10:03:21;5.47;;;3.28;;
76380;SDS011;65202;52.520;10.528;2023-03-05T10:06:01;5.50;;;3.00;;
76380;SDS011;65202;52.520;10.528;2023-03-05T10:08:56;5.30;;;3.00;;
76380;SDS011;65202;52.520;10.528;2023-03-05T10:14:21;6.57;;;2.90;;
76380;SDS011;65202;52.520;10.528;2023-03-05T10:20:33;5.80;;;2.70;;
76380;SDS011;65202;52.520;10.528;2023-03-05T10:26:26;5.43;;;2.55;;
76380;SDS011;65202;52.520;10.528;2023-03-05T10:29:16;4.50;;;2.55;;
76380;SDS011;65202;52.520;10.528;2023-03-05T10:34:53;5.60;;;2.35;;
76380;SDS011;65202;52.520;10.528;2023-03-05T10:40:54;5.45;;;1.83;;
76380;SDS011;65202;52.520;10.528;2023-03-05T10:43:26;6.95;;;1.77;;
76380;SDS011;65202;52.520;10.528;2023-03-05T10:46:08;6.28;;;1.30;;
76380;SDS011;65202;52.520;10.528;2023-03-05T10:48:50;6.43;;;1.25;;
76380;SDS011;65202;52.520;10.528;2023-03-05T10:51:30;3.72;;;1.00;;
76380;SDS011;65202;52.520;10.528;2023-03-05T10:54:08;3.83;;;1.10;;
76380;SDS011;65202;52.520;10.528;2023-03-05T10:56:44;5.28;;;1.17;;
76380;SDS011;65202;52.520;10.528;2023-03-05T10:59:11;4.20;;;0.90;;
76380;SDS011;65202;52.520;10.528;2023-03-05T11:01:38;4.93;;;1.05;;
76380;SDS011;65202;52.520;10.528;2023-03-05T11:04:06;4.15;;;1.10;;
76380;SDS011;65202;52.520;10.528;2023-03-05T11:06:52;3.05;;;1.00;;
76380;SDS011;65202;52.520;10.528;2023-03-05T11:12:03;5.25;;;0.80;;
76380;SDS011;65202;52.520;10.528;2023-03-05T11:17:37;6.93;;;1.70;;
76380;SDS011;65202;52.520;10.528;2023-03-05T11:28:25;10.25;;;3.22;;
76380;SDS011;65202;52.520;10.528;2023-03-05T11:31:01;9.73;;;2.50;;
76380;SDS011;65202;52.520;10.528;2023-03-05T11:36:30;6.28;;;2.55;;
76380;SDS011;65202;52.520;10.528;2023-03-05T11:41:38;8.13;;;3.10;;
76380;SDS011;65202;52.520;10.528;2023-03-05T11:44:12;6.13;;;1.85;;
76380;SDS011;65202;52.520;10.528;2023-03-05T11:46:48;4.80;;;2.20;;
76380;SDS011;65202;52.520;10.528;2023-03-05T11:49:23;7.65;;;2.40;;
76380;SDS011;65202;52.520;10.528;2023-03-05T11:54:41;8.10;;;2.92;;
76380;SDS011;65202;52.520;10.528;2023-03-05T11:57:30;8.00;;;3.72;;
76380;SDS011;65202;52.520;10.528;2023-03-05T12:00:29;6.13;;;3.40;;
76380;SDS011;65202;52.520;10.528;2023-03-05T12:02:59;8.95;;;3.55;;
76380;SDS011;65202;52.520;10.528;2023-03-05T12:05:35;9.13;;;3.55;;
76380;SDS011;65202;52.520;10.528;2023-03-05T12:08:10;7.60;;;3.20;;
76380;SDS011;65202;52.520;10.528;2023-03-05T12:10:43;6.35;;;2.92;;
76380;SDS011;65202;52.520;10.528;2023-03-05T12:13:26;6.45;;;2.80;;
76380;SDS011;65202;52.520;10.528;2023-03-05T12:16:02;8.23;;;3.08;;
76380;SDS011;65202;52.520;10.528;2023-03-05T12:18:46;8.65;;;3.65;;
76380;SDS011;65202;52.520;10.528;2023-03-05T12:21:36;7.50;;;3.35;;
76380;SDS011;65202;52.520;10.528;2023-03-05T12:29:49;9.15;;;4.13;;
76380;SDS011;65202;52.520;10.528;2023-03-05T12:34:49;10.13;;;3.67;;
76380;SDS011;65202;52.520;10.528;2023-03-05T12:39:59;9.30;;;3.17;;
76380;SDS011;65202;52.520;10.528;2023-03-05T12:42:43;5.95;;;3.25;;
76380;SDS011;65202;52.520;10.528;2023-03-05T12:52:56;9.65;;;3.30;;
76380;SDS011;65202;52.520;10.528;2023-03-05T12:55:34;7.43;;;3.30;;
76380;SDS011;65202;52.520;10.528;2023-03-05T13:00:53;10.55;;;3.72;;
76380;SDS011;65202;52.520;10.528;2023-03-05T13:03:32;4.82;;;3.60;;
76380;SDS011;65202;52.520;10.528;2023-03-05T13:06:05;6.78;;;2.97;;
76380;SDS011;65202;52.520;10.528;2023-03-05T13:08:34;9.07;;;3.42;;
76380;SDS011;65202;52.520;10.528;2023-03-05T13:13:34;6.22;;;2.70;;
76380;SDS011;65202;52.520;10.528;2023-03-05T13:16:04;5.63;;;3.05;;
76380;SDS011;65202;52.520;10.528;2023-03-05T13:18:41;7.65;;;2.92;;
76380;SDS011;65202;52.520;10.528;2023-03-05T13:21:14;8.68;;;2.75;;
76380;SDS011;65202;52.520;10.528;2023-03-05T13:23:51;7.97;;;2.95;;
76380;SDS011;65202;52.520;10.528;2023-03-05T13:26:25;5.45;;;2.58;;
76380;SDS011;65202;52.520;10.528;2023-03-05T13:29:02;5.72;;;2.97;;
76380;SDS011;65202;52.520;10.528;2023-03-05T13:31:47;5.35;;;2.40;;
76380;SDS011;65202;52.520;10.528;2023-03-05T13:34:34;6.00;;;2.00;;
76380;SDS011;65202;52.520;10.528;2023-03-05T13:37:14;8.30;;;2.20;;
76380;SDS011;65202;52.520;10.528;2023-03-05T13:40:02;6.67;;;2.70;;
76380;SDS011;65202;52.520;10.528;2023-03-05T13:42:52;5.35;;;2.05;;
76380;SDS011;65202;52.520;10.528;2023-03-05T13:45:30;6.00;;;2.10;;
76380;SDS011;65202;52.520;10.528;2023-03-05T13:47:59;5.80;;;2.50;;
76380;SDS011;65202;52.520;10.528;2023-03-05T13:50:31;4.63;;;2.45;;
76380;SDS011;65202;52.520;10.528;2023-03-05T13:53:12;18.45;;;9.35;;
76380;SDS011;65202;52.520;10.528;2023-03-05T13:55:49;10.88;;;5.20;;
76380;SDS011;65202;52.520;10.528;2023-03-05T14:01:33;14.68;;;6.85;;
76380;SDS011;65202;52.520;10.528;2023-03-05T14:06:50;8.75;;;3.80;;
76380;SDS011;65202;52.520;10.528;2023-03-05T14:14:47;7.22;;;3.08;;
76380;SDS011;65202;52.520;10.528;2023-03-05T14:17:32;5.18;;;2.75;;
76380;SDS011;65202;52.520;10.528;2023-03-05T14:22:40;7.78;;;3.10;;
76380;SDS011;65202;52.520;10.528;2023-03-05T14:25:25;4.38;;;3.15;;
76380;SDS011;65202;52.520;10.528;2023-03-05T14:28:15;7.25;;;2.97;;
76380;SDS011;65202;52.520;10.528;2023-03-05T14:30:45;5.90;;;3.17;;
76380;SDS011;65202;52.520;10.528;2023-03-05T14:33:19;13.35;;;7.80;;
76380;SDS011;65202;52.520;10.528;2023-03-05T14:35:51;7.32;;;3.65;;
76380;SDS011;65202;52.520;10.528;2023-03-05T14:38:21;4.53;;;3.50;;
76380;SDS011;65202;52.520;10.528;2023-03-05T14:40:53;7.35;;;3.65;;
76380;SDS011;65202;52.520;10.528;2023-03-05T14:43:21;5.70;;;3.10;;
76380;SDS011;65202;52.520;10.528;2023-03-05T14:45:48;7.93;;;3.45;;
76380;SDS011;65202;52.520;10.528;2023-03-05T14:48:16;7.65;;;3.72;;
76380;SDS011;65202;52.520;10.528;2023-03-05T14:50:45;7.30;;;3.85;;
76380;SDS011;65202;52.520;10.528;2023-03-05T14:53:19;6.47;;;3.25;;
76380;SDS011;65202;52.520;10.528;2023-03-05T14:55:52;4.25;;;2.90;;
76380;SDS011;65202;52.520;10.528;2023-03-05T14:58:31;5.43;;;2.40;;
76380;SDS011;65202;52.520;10.528;2023-03-05T15:01:01;4.65;;;3.00;;
76380;SDS011;65202;52.520;10.528;2023-03-05T15:03:28;8.10;;;3.72;;
76380;SDS011;65202;52.520;10.528;2023-03-05T15:05:55;14.23;;;10.10;;
76380;SDS011;65202;52.520;10.528;2023-03-05T15:08:26;6.15;;;3.42;;
76380;SDS011;65202;52.520;10.528;2023-03-05T15:10:59;9.00;;;1.80;;
76380;SDS011;65202;52.520;10.528;2023-03-05T15:13:27;14.07;;;6.95;;
76380;SDS011;65202;52.520;10.528;2023-03-05T15:15:54;6.60;;;3.05;;
76380;SDS011;65202;52.520;10.528;2023-03-05T15:18:22;4.25;;;2.80;;
76380;SDS011;65202;52.520;10.528;2023-03-05T15:20:49;6.57;;;2.13;;
76380;SDS011;65202;52.520;10.528;2023-03-05T15:23:18;6.00;;;1.50;;
76380;SDS011;65202;52.520;10.528;2023-03-05T15:25:46;5.07;;;1.30;;
76380;SDS011;65202;52.520;10.528;2023-03-05T15:28:14;7.00;;;1.35;;
76380;SDS011;65202;52.520;10.528;2023-03-05T15:30:43;4.18;;;1.88;;
76380;SDS011;65202;52.520;10.528;2023-03-05T15:33:13;3.03;;;1.40;;
76380;SDS011;65202;52.520;10.528;2023-03-05T15:35:43;4.10;;;1.50;;
76380;SDS011;65202;52.520;10.528;2023-03-05T15:38:10;4.20;;;1.92;;
76380;SDS011;65202;52.520;10.528;2023-03-05T15:40:37;7.57;;;1.65;;
76380;SDS011;65202;52.520;10.528;2023-03-05T15:43:05;3.42;;;1.80;;
76380;SDS011;65202;52.520;10.528;2023-03-05T15:45:32;7.65;;;2.08;;
76380;SDS011;65202;52.520;10.528;2023-03-05T15:47:59;5.13;;;2.15;;
76380;SDS011;65202;52.520;10.528;2023-03-05T15:50:26;9.25;;;2.10;;
76380;SDS011;65202;52.520;10.528;2023-03-05T15:52:54;3.85;;;1.70;;
76380;SDS011;65202;52.520;10.528;2023-03-05T15:55:21;7.18;;;2.45;;
76380;SDS011;65202;52.520;10.528;2023-03-05T15:57:49;7.18;;;2.50;;
76380;SDS011;65202;52.520;10.528;2023-03-05T16:00:22;9.00;;;2.58;;
76380;SDS011;65202;52.520;10.528;2023-03-05T16:02:54;5.60;;;2.00;;
76380;SDS011;65202;52.520;10.528;2023-03-05T16:05:22;7.18;;;2.25;;
76380;SDS011;65202;52.520;10.528;2023-03-05T16:07:50;5.78;;;1.92;;
76380;SDS011;65202;52.520;10.528;2023-03-05T16:10:22;7.68;;;1.98;;
76380;SDS011;65202;52.520;10.528;2023-03-05T16:12:53;9.80;;;2.25;;
76380;SDS011;65202;52.520;10.528;2023-03-05T16:15:30;10.23;;;2.42;;
76380;SDS011;65202;52.520;10.528;2023-03-05T16:17:59;8.63;;;2.10;;
76380;SDS011;65202;52.520;10.528;2023-03-05T16:20:31;7.10;;;2.45;;